sensor_id;sensor_type;location;lat;lon;timestamp;P1;durP1;ratioP1;P2;durP2;ratioP2
20040;SDS011;10181;48.072;9.884;2022-12-10T00:01:23;13.87;;;9.90;;
20040;SDS011;10181;48.072;9.884;2022-12-10T00:03:49;14.93;;;9.93;;
20040;SDS011;10181;48.072;9.884;2022-12-10T00:06:16;17.87;;;10.67;;
20040;SDS011;10181;48.072;9.884;2022-12-10T00:08:43;17.70;;;10.97;;
20040;SDS011;10181;48.072;9.884;2022-12-10T00:11:10;17.23;;;11.33;;
20040;SDS011;10181;48.072;9.884;2022-12-10T00:13:37;16.97;;;9.93;;
20040;SDS011;10181;48.072;9.884;2022-12-10T00:16:04;14.43;;;10.40;;
20040;SDS011;10181;48.072;9.884;2022-12-10T00:18:32;17.03;;;11.20;;
20040;SDS011;10181;48.072;9.884;2022-12-10T00:20:58;13.70;;;9.87;;
20040;SDS011;10181;48.072;9.884;2022-12-10T00:23:26;13.80;;;9.93;;
20040;SDS011;10181;48.072;9.884;2022-12-10T00:25:52;17.33;;;11.23;;
20040;SDS011;10181;48.072;9.884;2022-12-10T00:28:17;17.10;;;11.57;;
20040;SDS011;10181;48.072;9.884;2022-12-10T00:30:43;13.17;;;9.53;;
20040;SDS011;10181;48.072;9.884;2022-12-10T00:33:08;15.47;;;10.23;;
20040;SDS011;10181;48.072;9.884;2022-12-10T00:35:35;14.47;;;10.73;;
20040;SDS011;10181;48.072;9.884;2022-12-10T00:38:01;16.37;;;10.73;;
20040;SDS011;10181;48.072;9.884;2022-12-10T00:40:27;14.90;;;10.33;;
20040;SDS011;10181;48.072;9.884;2022-12-10T00:42:53;13.30;;;9.33;;
20040;SDS011;10181;48.072;9.884;2022-12-10T00:45:18;14.23;;;10.10;;
20040;SDS011;10181;48.072;9.884;2022-12-10T00:47:44;12.73;;;9.03;;
20040;SDS011;10181;48.072;9.884;2022-12-10T00:50:09;15.83;;;9.83;;
20040;SDS011;10181;48.072;9.884;2022-12-10T00:52:35;20.83;;;12.10;;
20040;SDS011;10181;48.072;9.884;2022-12-10T00:55:01;17.73;;;11.27;;
20040;SDS011;10181;48.072;9.884;2022-12-10T00:57:26;17.77;;;11.50;;
20040;SDS011;10181;48.072;9.884;2022-12-10T00:59:52;18.00;;;11.60;;
20040;SDS011;10181;48.072;9.884;2022-12-10T01:02:18;18.33;;;11.00;;
20040;SDS011;10181;48.072;9.884;2022-12-10T01:04:43;16.23;;;10.17;;
20040;SDS011;10181;48.072;9.884;2022-12-10T01:07:09;18.77;;;11.33;;
20040;SDS011;10181;48.072;9.884;2022-12-10T01:09:35;17.60;;;11.37;;
20040;SDS011;10181;48.072;9.884;2022-12-10T01:12:02;13.47;;;9.23;;
20040;SDS011;10181;48.072;9.884;2022-12-10T01:14:29;15.63;;;10.90;;
20040;SDS011;10181;48.072;9.884;2022-12-10T01:16:57;16.57;;;11.13;;
20040;SDS011;10181;48.072;9.884;2022-12-10T01:19:28;19.80;;;13.13;;
20040;SDS011;10181;48.072;9.884;2022-12-10T01:21:54;16.20;;;11.47;;
20040;SDS011;10181;48.072;9.884;2022-12-10T01:24:21;17.87;;;11.10;;
20040;SDS011;10181;48.072;9.884;2022-12-10T01:26:47;19.17;;;10.60;;
20040;SDS011;10181;48.072;9.884;2022-12-10T01:29:13;13.77;;;10.30;;
20040;SDS011;10181;48.072;9.884;2022-12-10T01:31:39;13.13;;;9.20;;
20040;SDS011;10181;48.072;9.884;2022-12-10T01:34:06;15.40;;;10.67;;
20040;SDS011;10181;48.072;9.884;2022-12-10T01:36:35;14.70;;;9.90;;
20040;SDS011;10181;48.072;9.884;2022-12-10T01:39:04;17.70;;;10.40;;
20040;SDS011;10181;48.072;9.884;2022-12-10T01:41:41;13.97;;;10.17;;
20040;SDS011;10181;48.072;9.884;2022-12-10T01:46:40;13.97;;;10.00;;
20040;SDS011;10181;48.072;9.884;2022-12-10T01:49:11;15.93;;;10.97;;
20040;SDS011;10181;48.072;9.884;2022-12-10T01:51:40;19.30;;;11.23;;
20040;SDS011;10181;48.072;9.884;2022-12-10T01:54:09;18.13;;;11.00;;
20040;SDS011;10181;48.072;9.884;2022-12-10T01:56:40;17.53;;;10.50;;
20040;SDS011;10181;48.072;9.884;2022-12-10T01:59:08;16.63;;;10.90;;
20040;SDS011;10181;48.072;9.884;2022-12-10T02:01:50;14.53;;;10.07;;
20040;SDS011;10181;48.072;9.884;2022-12-10T02:04:33;15.47;;;10.20;;
20040;SDS011;10181;48.072;9.884;2022-12-10T02:07:22;17.77;;;10.97;;
20040;SDS011;10181;48.072;9.884;2022-12-10T02:09:54;15.63;;;10.53;;
20040;SDS011;10181;48.072;9.884;2022-12-10T02:12:37;13.20;;;8.53;;
20040;SDS011;10181;48.072;9.884;2022-12-10T02:17:45;13.33;;;8.90;;
20040;SDS011;10181;48.072;9.884;2022-12-10T02:20:26;15.77;;;10.40;;
20040;SDS011;10181;48.072;9.884;2022-12-10T02:23:06;13.83;;;9.27;;
20040;SDS011;10181;48.072;9.884;2022-12-10T02:30:36;13.83;;;9.73;;
20040;SDS011;10181;48.072;9.884;2022-12-10T02:33:05;16.87;;;10.13;;
20040;SDS011;10181;48.072;9.884;2022-12-10T02:35:32;17.40;;;10.80;;
20040;SDS011;10181;48.072;9.884;2022-12-10T02:38:08;13.17;;;9.40;;
20040;SDS011;10181;48.072;9.884;2022-12-10T02:40:42;15.90;;;11.13;;
20040;SDS011;10181;48.072;9.884;2022-12-10T02:43:11;16.20;;;10.03;;
20040;SDS011;10181;48.072;9.884;2022-12-10T02:45:38;17.80;;;10.03;;
20040;SDS011;10181;48.072;9.884;2022-12-10T02:48:06;19.73;;;11.37;;
20040;SDS011;10181;48.072;9.884;2022-12-10T02:50:32;14.83;;;10.33;;
20040;SDS011;10181;48.072;9.884;2022-12-10T02:52:58;15.60;;;9.43;;
20040;SDS011;10181;48.072;9.884;2022-12-10T02:55:24;18.23;;;10.03;;
20040;SDS011;10181;48.072;9.884;2022-12-10T02:57:55;16.83;;;10.67;;
20040;SDS011;10181;48.072;9.884;2022-12-10T03:00:36;15.77;;;9.93;;
20040;SDS011;10181;48.072;9.884;2022-12-10T03:03:28;15.90;;;11.30;;
20040;SDS011;10181;48.072;9.884;2022-12-10T03:08:59;17.67;;;10.67;;
20040;SDS011;10181;48.072;9.884;2022-12-10T03:11:31;17.40;;;9.20;;
20040;SDS011;10181;48.072;9.884;2022-12-10T03:16:31;12.87;;;8.23;;
20040;SDS011;10181;48.072;9.884;2022-12-10T03:19:01;19.53;;;11.90;;
20040;SDS011;10181;48.072;9.884;2022-12-10T03:21:30;15.43;;;9.17;;
20040;SDS011;10181;48.072;9.884;2022-12-10T03:23:59;17.60;;;10.57;;
20040;SDS011;10181;48.072;9.884;2022-12-10T03:26:25;17.70;;;10.70;;
20040;SDS011;10181;48.072;9.884;2022-12-10T03:28:54;21.43;;;11.17;;
20040;SDS011;10181;48.072;9.884;2022-12-10T03:31:25;16.03;;;9.90;;
20040;SDS011;10181;48.072;9.884;2022-12-10T03:33:51;16.20;;;8.27;;
20040;SDS011;10181;48.072;9.884;2022-12-10T03:36:18;14.43;;;8.90;;
20040;SDS011;10181;48.072;9.884;2022-12-10T03:38:45;14.60;;;8.97;;
20040;SDS011;10181;48.072;9.884;2022-12-10T03:41:10;17.60;;;9.33;;
20040;SDS011;10181;48.072;9.884;2022-12-10T03:43:48;17.77;;;10.13;;
20040;SDS011;10181;48.072;9.884;2022-12-10T03:46:18;15.20;;;8.93;;
20040;SDS011;10181;48.072;9.884;2022-12-10T03:48:43;17.50;;;10.10;;
20040;SDS011;10181;48.072;9.884;2022-12-10T03:51:09;13.87;;;9.27;;
20040;SDS011;10181;48.072;9.884;2022-12-10T03:53:34;20.63;;;9.70;;
20040;SDS011;10181;48.072;9.884;2022-12-10T03:56:00;18.30;;;10.93;;
20040;SDS011;10181;48.072;9.884;2022-12-10T03:58:26;20.03;;;10.40;;
20040;SDS011;10181;48.072;9.884;2022-12-10T04:00:51;21.33;;;11.47;;
20040;SDS011;10181;48.072;9.884;2022-12-10T04:03:17;23.73;;;10.83;;
20040;SDS011;10181;48.072;9.884;2022-12-10T04:05:42;20.33;;;10.63;;
20040;SDS011;10181;48.072;9.884;2022-12-10T04:08:08;16.60;;;10.20;;
20040;SDS011;10181;48.072;9.884;2022-12-10T04:10:37;19.07;;;10.60;;
20040;SDS011;10181;48.072;9.884;2022-12-10T04:13:03;21.83;;;12.30;;
20040;SDS011;10181;48.072;9.884;2022-12-10T04:15:48;15.10;;;9.27;;
20040;SDS011;10181;48.072;9.884;2022-12-10T04:18:32;18.50;;;10.17;;
20040;SDS011;10181;48.072;9.884;2022-12-10T04:20:57;17.47;;;9.87;;
20040;SDS011;10181;48.072;9.884;2022-12-10T04:23:41;18.77;;;10.77;;
20040;SDS011;10181;48.072;9.884;2022-12-10T04:26:25;19.53;;;10.67;;
20040;SDS011;10181;48.072;9.884;2022-12-10T04:29:09;21.07;;;11.63;;
20040;SDS011;10181;48.072;9.884;2022-12-10T04:31:35;20.00;;;10.87;;
20040;SDS011;10181;48.072;9.884;2022-12-10T04:34:01;16.73;;;10.27;;
20040;SDS011;10181;48.072;9.884;2022-12-10T04:36:26;21.07;;;10.80;;
20040;SDS011;10181;48.072;9.884;2022-12-10T04:38:52;16.50;;;11.20;;
20040;SDS011;10181;48.072;9.884;2022-12-10T04:41:17;18.63;;;9.63;;
20040;SDS011;10181;48.072;9.884;2022-12-10T04:43:43;16.03;;;8.93;;
20040;SDS011;10181;48.072;9.884;2022-12-10T04:46:09;18.23;;;9.70;;
20040;SDS011;10181;48.072;9.884;2022-12-10T04:48:36;14.43;;;10.10;;
20040;SDS011;10181;48.072;9.884;2022-12-10T04:51:02;14.87;;;8.37;;
20040;SDS011;10181;48.072;9.884;2022-12-10T04:53:28;14.50;;;8.10;;
20040;SDS011;10181;48.072;9.884;2022-12-10T04:55:53;16.70;;;8.90;;
20040;SDS011;10181;48.072;9.884;2022-12-10T04:58:19;18.17;;;9.00;;
20040;SDS011;10181;48.072;9.884;2022-12-10T05:00:45;13.00;;;8.40;;
20040;SDS011;10181;48.072;9.884;2022-12-10T05:03:10;15.47;;;8.93;;
20040;SDS011;10181;48.072;9.884;2022-12-10T05:05:36;18.23;;;10.20;;
20040;SDS011;10181;48.072;9.884;2022-12-10T05:08:02;12.37;;;8.23;;
20040;SDS011;10181;48.072;9.884;2022-12-10T05:10:27;14.63;;;9.10;;
20040;SDS011;10181;48.072;9.884;2022-12-10T05:12:53;17.17;;;8.93;;
20040;SDS011;10181;48.072;9.884;2022-12-10T05:15:19;15.57;;;9.10;;
20040;SDS011;10181;48.072;9.884;2022-12-10T05:17:44;13.40;;;7.87;;
20040;SDS011;10181;48.072;9.884;2022-12-10T05:20:10;14.50;;;9.27;;
20040;SDS011;10181;48.072;9.884;2022-12-10T05:22:36;14.77;;;8.33;;
20040;SDS011;10181;48.072;9.884;2022-12-10T05:25:20;12.57;;;7.50;;
20040;SDS011;10181;48.072;9.884;2022-12-10T05:27:46;12.20;;;7.10;;
20040;SDS011;10181;48.072;9.884;2022-12-10T05:30:12;13.03;;;8.23;;
20040;SDS011;10181;48.072;9.884;2022-12-10T05:32:37;11.13;;;7.20;;
20040;SDS011;10181;48.072;9.884;2022-12-10T05:35:03;15.77;;;8.03;;
20040;SDS011;10181;48.072;9.884;2022-12-10T05:37:29;15.13;;;8.63;;
20040;SDS011;10181;48.072;9.884;2022-12-10T05:39:55;13.20;;;7.90;;
20040;SDS011;10181;48.072;9.884;2022-12-10T05:42:20;15.03;;;8.70;;
20040;SDS011;10181;48.072;9.884;2022-12-10T05:44:46;16.77;;;7.57;;
20040;SDS011;10181;48.072;9.884;2022-12-10T05:47:12;16.63;;;8.23;;
20040;SDS011;10181;48.072;9.884;2022-12-10T05:49:37;15.73;;;9.00;;
20040;SDS011;10181;48.072;9.884;2022-12-10T05:52:03;14.40;;;8.93;;
20040;SDS011;10181;48.072;9.884;2022-12-10T05:54:28;18.27;;;8.77;;
20040;SDS011;10181;48.072;9.884;2022-12-10T05:56:54;22.40;;;10.73;;
20040;SDS011;10181;48.072;9.884;2022-12-10T05:59:20;15.03;;;9.30;;
20040;SDS011;10181;48.072;9.884;2022-12-10T06:01:45;16.87;;;9.90;;
20040;SDS011;10181;48.072;9.884;2022-12-10T06:04:11;14.00;;;8.37;;
20040;SDS011;10181;48.072;9.884;2022-12-10T06:06:37;12.97;;;8.67;;
20040;SDS011;10181;48.072;9.884;2022-12-10T06:09:04;23.27;;;12.33;;
20040;SDS011;10181;48.072;9.884;2022-12-10T06:11:31;15.73;;;10.23;;
20040;SDS011;10181;48.072;9.884;2022-12-10T06:13:57;22.77;;;10.63;;
20040;SDS011;10181;48.072;9.884;2022-12-10T06:16:24;21.50;;;11.73;;
20040;SDS011;10181;48.072;9.884;2022-12-10T06:18:51;24.73;;;12.00;;
20040;SDS011;10181;48.072;9.884;2022-12-10T06:21:18;20.90;;;12.00;;
20040;SDS011;10181;48.072;9.884;2022-12-10T06:23:44;22.87;;;13.60;;
20040;SDS011;10181;48.072;9.884;2022-12-10T06:26:20;22.80;;;12.00;;
20040;SDS011;10181;48.072;9.884;2022-12-10T06:28:48;24.93;;;11.93;;
20040;SDS011;10181;48.072;9.884;2022-12-10T06:31:14;26.57;;;13.57;;
20040;SDS011;10181;48.072;9.884;2022-12-10T06:33:41;18.90;;;13.07;;
20040;SDS011;10181;48.072;9.884;2022-12-10T06:36:07;17.63;;;11.30;;
20040;SDS011;10181;48.072;9.884;2022-12-10T06:38:34;19.33;;;12.10;;
20040;SDS011;10181;48.072;9.884;2022-12-10T06:41:03;26.13;;;15.73;;
20040;SDS011;10181;48.072;9.884;2022-12-10T06:43:30;22.83;;;13.47;;
20040;SDS011;10181;48.072;9.884;2022-12-10T06:45:55;23.10;;;14.03;;
20040;SDS011;10181;48.072;9.884;2022-12-10T06:48:21;18.77;;;12.67;;
20040;SDS011;10181;48.072;9.884;2022-12-10T06:50:47;24.03;;;14.10;;
20040;SDS011;10181;48.072;9.884;2022-12-10T06:53:12;23.03;;;14.47;;
20040;SDS011;10181;48.072;9.884;2022-12-10T06:55:38;23.63;;;13.23;;
20040;SDS011;10181;48.072;9.884;2022-12-10T06:58:03;23.13;;;14.30;;
20040;SDS011;10181;48.072;9.884;2022-12-10T07:00:29;20.30;;;11.83;;
20040;SDS011;10181;48.072;9.884;2022-12-10T07:02:56;22.80;;;13.93;;
20040;SDS011;10181;48.072;9.884;2022-12-10T07:05:21;21.60;;;14.27;;
20040;SDS011;10181;48.072;9.884;2022-12-10T07:07:47;23.07;;;12.97;;
20040;SDS011;10181;48.072;9.884;2022-12-10T07:10:12;25.73;;;13.67;;
20040;SDS011;10181;48.072;9.884;2022-12-10T07:12:38;20.47;;;12.67;;
20040;SDS011;10181;48.072;9.884;2022-12-10T07:15:04;23.67;;;13.73;;
20040;SDS011;10181;48.072;9.884;2022-12-10T07:17:31;20.77;;;13.07;;
20040;SDS011;10181;48.072;9.884;2022-12-10T07:19:57;20.37;;;13.23;;
20040;SDS011;10181;48.072;9.884;2022-12-10T07:22:22;16.57;;;12.27;;
20040;SDS011;10181;48.072;9.884;2022-12-10T07:24:48;21.37;;;12.33;;
20040;SDS011;10181;48.072;9.884;2022-12-10T07:27:15;15.90;;;11.80;;
20040;SDS011;10181;48.072;9.884;2022-12-10T07:29:41;19.47;;;13.10;;
20040;SDS011;10181;48.072;9.884;2022-12-10T07:32:06;16.33;;;10.97;;
20040;SDS011;10181;48.072;9.884;2022-12-10T07:34:32;19.47;;;13.23;;
20040;SDS011;10181;48.072;9.884;2022-12-10T07:36:57;19.00;;;11.17;;
20040;SDS011;10181;48.072;9.884;2022-12-10T07:39:23;19.83;;;13.17;;
20040;SDS011;10181;48.072;9.884;2022-12-10T07:41:49;23.60;;;14.03;;
20040;SDS011;10181;48.072;9.884;2022-12-10T07:44:17;21.70;;;13.80;;
20040;SDS011;10181;48.072;9.884;2022-12-10T07:46:47;23.00;;;13.90;;
20040;SDS011;10181;48.072;9.884;2022-12-10T07:49:13;21.83;;;12.80;;
20040;SDS011;10181;48.072;9.884;2022-12-10T07:51:39;18.47;;;12.50;;
20040;SDS011;10181;48.072;9.884;2022-12-10T07:54:08;18.03;;;12.13;;
20040;SDS011;10181;48.072;9.884;2022-12-10T07:56:34;20.07;;;12.50;;
20040;SDS011;10181;48.072;9.884;2022-12-10T07:58:59;17.17;;;12.23;;
20040;SDS011;10181;48.072;9.884;2022-12-10T08:01:25;21.00;;;12.13;;
20040;SDS011;10181;48.072;9.884;2022-12-10T08:03:52;21.80;;;12.50;;
20040;SDS011;10181;48.072;9.884;2022-12-10T08:06:21;19.43;;;12.20;;
20040;SDS011;10181;48.072;9.884;2022-12-10T08:08:47;22.73;;;13.43;;
20040;SDS011;10181;48.072;9.884;2022-12-10T08:11:14;21.57;;;13.87;;
20040;SDS011;10181;48.072;9.884;2022-12-10T08:13:41;19.67;;;12.27;;
20040;SDS011;10181;48.072;9.884;2022-12-10T08:16:08;20.93;;;13.43;;
20040;SDS011;10181;48.072;9.884;2022-12-10T08:18:43;20.23;;;12.77;;
20040;SDS011;10181;48.072;9.884;2022-12-10T08:21:11;22.33;;;13.40;;
20040;SDS011;10181;48.072;9.884;2022-12-10T08:23:39;14.53;;;10.93;;
20040;SDS011;10181;48.072;9.884;2022-12-10T08:26:06;17.60;;;12.57;;
20040;SDS011;10181;48.072;9.884;2022-12-10T08:28:33;17.57;;;11.97;;
20040;SDS011;10181;48.072;9.884;2022-12-10T08:30:59;17.63;;;12.03;;
20040;SDS011;10181;48.072;9.884;2022-12-10T08:33:25;16.23;;;10.67;;
20040;SDS011;10181;48.072;9.884;2022-12-10T08:35:51;15.63;;;10.27;;
20040;SDS011;10181;48.072;9.884;2022-12-10T08:38:16;20.27;;;12.33;;
20040;SDS011;10181;48.072;9.884;2022-12-10T08:40:42;17.10;;;11.77;;
20040;SDS011;10181;48.072;9.884;2022-12-10T08:43:08;17.03;;;11.27;;
20040;SDS011;10181;48.072;9.884;2022-12-10T08:45:33;18.20;;;12.17;;
20040;SDS011;10181;48.072;9.884;2022-12-10T08:48:00;18.17;;;12.17;;
20040;SDS011;10181;48.072;9.884;2022-12-10T08:50:26;18.27;;;11.03;;
20040;SDS011;10181;48.072;9.884;2022-12-10T08:52:52;19.43;;;11.97;;
20040;SDS011;10181;48.072;9.884;2022-12-10T08:55:17;19.00;;;12.63;;
20040;SDS011;10181;48.072;9.884;2022-12-10T08:57:43;17.80;;;12.67;;
20040;SDS011;10181;48.072;9.884;2022-12-10T09:00:09;15.83;;;11.70;;
20040;SDS011;10181;48.072;9.884;2022-12-10T09:02:35;15.40;;;10.57;;
20040;SDS011;10181;48.072;9.884;2022-12-10T09:05:00;14.83;;;10.33;;
20040;SDS011;10181;48.072;9.884;2022-12-10T09:07:26;16.97;;;11.00;;
20040;SDS011;10181;48.072;9.884;2022-12-10T09:09:52;14.60;;;10.27;;
20040;SDS011;10181;48.072;9.884;2022-12-10T09:12:17;15.63;;;10.30;;
20040;SDS011;10181;48.072;9.884;2022-12-10T09:14:43;17.27;;;10.30;;
20040;SDS011;10181;48.072;9.884;2022-12-10T09:17:08;12.83;;;9.17;;
20040;SDS011;10181;48.072;9.884;2022-12-10T09:19:34;13.47;;;10.00;;
20040;SDS011;10181;48.072;9.884;2022-12-10T09:22:00;18.47;;;11.70;;
20040;SDS011;10181;48.072;9.884;2022-12-10T09:24:25;12.57;;;9.80;;
20040;SDS011;10181;48.072;9.884;2022-12-10T09:26:51;14.83;;;10.27;;
20040;SDS011;10181;48.072;9.884;2022-12-10T09:29:17;14.20;;;10.30;;
20040;SDS011;10181;48.072;9.884;2022-12-10T09:31:42;17.27;;;11.00;;
20040;SDS011;10181;48.072;9.884;2022-12-10T09:34:08;12.73;;;10.33;;
20040;SDS011;10181;48.072;9.884;2022-12-10T09:36:33;14.53;;;9.90;;
20040;SDS011;10181;48.072;9.884;2022-12-10T09:38:59;13.60;;;10.40;;
20040;SDS011;10181;48.072;9.884;2022-12-10T09:47:19;14.63;;;11.10;;
20040;SDS011;10181;48.072;9.884;2022-12-10T09:49:54;13.57;;;10.37;;
20040;SDS011;10181;48.072;9.884;2022-12-10T09:52:29;15.03;;;10.60;;
20040;SDS011;10181;48.072;9.884;2022-12-10T09:55:02;13.30;;;9.27;;
20040;SDS011;10181;48.072;9.884;2022-12-10T09:57:36;12.30;;;9.73;;
20040;SDS011;10181;48.072;9.884;2022-12-10T10:00:15;12.37;;;9.80;;
20040;SDS011;10181;48.072;9.884;2022-12-10T10:02:49;11.80;;;9.60;;
20040;SDS011;10181;48.072;9.884;2022-12-10T10:07:51;13.67;;;9.60;;
20040;SDS011;10181;48.072;9.884;2022-12-10T10:12:54;13.73;;;9.87;;
20040;SDS011;10181;48.072;9.884;2022-12-10T10:15:28;12.90;;;9.93;;
20040;SDS011;10181;48.072;9.884;2022-12-10T10:17:57;12.87;;;10.63;;
20040;SDS011;10181;48.072;9.884;2022-12-10T10:20:27;11.63;;;10.10;;
20040;SDS011;10181;48.072;9.884;2022-12-10T10:22:53;13.47;;;9.97;;
20040;SDS011;10181;48.072;9.884;2022-12-10T10:25:22;12.10;;;9.67;;
20040;SDS011;10181;48.072;9.884;2022-12-10T10:27:48;10.23;;;8.70;;
20040;SDS011;10181;48.072;9.884;2022-12-10T10:30:15;11.20;;;9.07;;
20040;SDS011;10181;48.072;9.884;2022-12-10T10:32:48;13.33;;;9.37;;
20040;SDS011;10181;48.072;9.884;2022-12-10T10:35:21;12.13;;;9.53;;
20040;SDS011;10181;48.072;9.884;2022-12-10T10:37:56;9.80;;;8.77;;
20040;SDS011;10181;48.072;9.884;2022-12-10T10:40:32;12.13;;;9.43;;
20040;SDS011;10181;48.072;9.884;2022-12-10T10:43:04;11.07;;;9.27;;
20040;SDS011;10181;48.072;9.884;2022-12-10T10:48:20;10.83;;;9.43;;
20040;SDS011;10181;48.072;9.884;2022-12-10T10:50:51;10.93;;;9.37;;
20040;SDS011;10181;48.072;9.884;2022-12-10T10:53:33;11.70;;;9.43;;
20040;SDS011;10181;48.072;9.884;2022-12-10T11:04:15;12.30;;;9.97;;
20040;SDS011;10181;48.072;9.884;2022-12-10T11:06:42;13.47;;;10.30;;
20040;SDS011;10181;48.072;9.884;2022-12-10T11:09:24;14.67;;;10.97;;
20040;SDS011;10181;48.072;9.884;2022-12-10T11:11:58;14.03;;;9.33;;
20040;SDS011;10181;48.072;9.884;2022-12-10T11:17:18;16.33;;;10.83;;
20040;SDS011;10181;48.072;9.884;2022-12-10T11:22:55;11.60;;;9.50;;
20040;SDS011;10181;48.072;9.884;2022-12-10T11:25:40;12.10;;;9.67;;
20040;SDS011;10181;48.072;9.884;2022-12-10T11:28:22;9.27;;;8.20;;
20040;SDS011;10181;48.072;9.884;2022-12-10T11:36:49;10.67;;;8.83;;
20040;SDS011;10181;48.072;9.884;2022-12-10T11:45:27;11.43;;;9.13;;
20040;SDS011;10181;48.072;9.884;2022-12-10T11:50:55;10.77;;;9.10;;
20040;SDS011;10181;48.072;9.884;2022-12-10T12:05:12;9.60;;;7.93;;
20040;SDS011;10181;48.072;9.884;2022-12-10T12:07:28;7.90;;;6.63;;
20040;SDS011;10181;48.072;9.884;2022-12-10T12:15:27;11.00;;;9.23;;
20040;SDS011;10181;48.072;9.884;2022-12-10T12:18:08;18.77;;;11.30;;
20040;SDS011;10181;48.072;9.884;2022-12-10T12:20:38;12.27;;;10.33;;
20040;SDS011;10181;48.072;9.884;2022-12-10T12:23:19;12.57;;;9.03;;
20040;SDS011;10181;48.072;9.884;2022-12-10T12:25:53;11.47;;;9.90;;
20040;SDS011;10181;48.072;9.884;2022-12-10T12:28:46;19.93;;;12.70;;
20040;SDS011;10181;48.072;9.884;2022-12-10T12:31:31;15.90;;;11.90;;
20040;SDS011;10181;48.072;9.884;2022-12-10T12:34:21;16.30;;;12.87;;
20040;SDS011;10181;48.072;9.884;2022-12-10T12:37:08;14.30;;;11.43;;
20040;SDS011;10181;48.072;9.884;2022-12-10T12:39:43;15.37;;;11.53;;
20040;SDS011;10181;48.072;9.884;2022-12-10T12:50:41;15.67;;;11.87;;
20040;SDS011;10181;48.072;9.884;2022-12-10T12:53:08;17.03;;;11.20;;
20040;SDS011;10181;48.072;9.884;2022-12-10T13:00:50;10.67;;;8.63;;
20040;SDS011;10181;48.072;9.884;2022-12-10T13:11:44;8.97;;;7.83;;
20040;SDS011;10181;48.072;9.884;2022-12-10T13:14:34;8.37;;;7.47;;
20040;SDS011;10181;48.072;9.884;2022-12-10T13:19:53;9.77;;;8.40;;
20040;SDS011;10181;48.072;9.884;2022-12-10T13:22:40;16.23;;;9.30;;
20040;SDS011;10181;48.072;9.884;2022-12-10T13:25:10;10.93;;;8.30;;
20040;SDS011;10181;48.072;9.884;2022-12-10T13:27:39;14.77;;;10.30;;
20040;SDS011;10181;48.072;9.884;2022-12-10T13:46:34;10.57;;;7.93;;
20040;SDS011;10181;48.072;9.884;2022-12-10T13:49:19;10.57;;;7.90;;
20040;SDS011;10181;48.072;9.884;2022-12-10T13:52:03;9.30;;;8.27;;
20040;SDS011;10181;48.072;9.884;2022-12-10T13:57:34;11.93;;;8.50;;
20040;SDS011;10181;48.072;9.884;2022-12-10T14:00:21;8.57;;;7.70;;
20040;SDS011;10181;48.072;9.884;2022-12-10T14:05:55;11.77;;;8.33;;
20040;SDS011;10181;48.072;9.884;2022-12-10T14:08:35;12.00;;;9.43;;
20040;SDS011;10181;48.072;9.884;2022-12-10T14:11:04;9.00;;;8.10;;
20040;SDS011;10181;48.072;9.884;2022-12-10T14:13:36;11.40;;;8.37;;
20040;SDS011;10181;48.072;9.884;2022-12-10T14:16:13;12.80;;;8.30;;
20040;SDS011;10181;48.072;9.884;2022-12-10T14:18:43;12.67;;;9.40;;
20040;SDS011;10181;48.072;9.884;2022-12-10T14:21:16;10.87;;;8.00;;
20040;SDS011;10181;48.072;9.884;2022-12-10T14:23:43;11.37;;;8.47;;
20040;SDS011;10181;48.072;9.884;2022-12-10T14:26:11;10.43;;;8.07;;
20040;SDS011;10181;48.072;9.884;2022-12-10T14:28:38;11.80;;;7.60;;
20040;SDS011;10181;48.072;9.884;2022-12-10T14:31:06;12.43;;;7.97;;
20040;SDS011;10181;48.072;9.884;2022-12-10T14:33:38;12.07;;;8.17;;
20040;SDS011;10181;48.072;9.884;2022-12-10T14:36:04;11.27;;;8.00;;
20040;SDS011;10181;48.072;9.884;2022-12-10T14:38:32;12.43;;;8.90;;
20040;SDS011;10181;48.072;9.884;2022-12-10T14:40:59;9.00;;;7.87;;
20040;SDS011;10181;48.072;9.884;2022-12-10T14:43:35;10.93;;;8.03;;
20040;SDS011;10181;48.072;9.884;2022-12-10T14:46:03;9.20;;;7.63;;
20040;SDS011;10181;48.072;9.884;2022-12-10T14:48:30;12.13;;;8.60;;
20040;SDS011;10181;48.072;9.884;2022-12-10T14:51:05;10.23;;;8.47;;
20040;SDS011;10181;48.072;9.884;2022-12-10T14:53:39;9.93;;;7.50;;
20040;SDS011;10181;48.072;9.884;2022-12-10T14:56:05;9.07;;;8.00;;
20040;SDS011;10181;48.072;9.884;2022-12-10T14:58:38;10.77;;;7.77;;
20040;SDS011;10181;48.072;9.884;2022-12-10T15:01:16;9.20;;;7.67;;
20040;SDS011;10181;48.072;9.884;2022-12-10T15:27:33;14.17;;;12.63;;
20040;SDS011;10181;48.072;9.884;2022-12-10T15:29:58;12.53;;;11.10;;
20040;SDS011;10181;48.072;9.884;2022-12-10T15:32:25;15.47;;;12.33;;
20040;SDS011;10181;48.072;9.884;2022-12-10T15:34:57;13.50;;;12.10;;
20040;SDS011;10181;48.072;9.884;2022-12-10T15:37:26;16.63;;;13.97;;
20040;SDS011;10181;48.072;9.884;2022-12-10T15:39:57;14.60;;;12.17;;
20040;SDS011;10181;48.072;9.884;2022-12-10T15:47:31;15.83;;;14.23;;
20040;SDS011;10181;48.072;9.884;2022-12-10T15:49:58;12.50;;;11.20;;
20040;SDS011;10181;48.072;9.884;2022-12-10T15:52:28;15.03;;;11.67;;
20040;SDS011;10181;48.072;9.884;2022-12-10T15:54:55;14.23;;;12.67;;
20040;SDS011;10181;48.072;9.884;2022-12-10T15:57:23;14.23;;;12.77;;
20040;SDS011;10181;48.072;9.884;2022-12-10T15:59:58;14.80;;;12.67;;
20040;SDS011;10181;48.072;9.884;2022-12-10T16:05:10;18.50;;;13.30;;
20040;SDS011;10181;48.072;9.884;2022-12-10T16:07:36;13.23;;;11.13;;
20040;SDS011;10181;48.072;9.884;2022-12-10T16:10:02;12.40;;;11.13;;
20040;SDS011;10181;48.072;9.884;2022-12-10T16:12:28;11.57;;;9.87;;
20040;SDS011;10181;48.072;9.884;2022-12-10T16:14:55;11.27;;;9.60;;
20040;SDS011;10181;48.072;9.884;2022-12-10T16:17:28;10.93;;;9.73;;
20040;SDS011;10181;48.072;9.884;2022-12-10T16:22:51;12.43;;;11.13;;
20040;SDS011;10181;48.072;9.884;2022-12-10T16:25:17;11.60;;;10.30;;
20040;SDS011;10181;48.072;9.884;2022-12-10T16:27:43;11.50;;;10.40;;
20040;SDS011;10181;48.072;9.884;2022-12-10T16:30:11;13.73;;;11.30;;
20040;SDS011;10181;48.072;9.884;2022-12-10T16:32:38;10.80;;;9.50;;
20040;SDS011;10181;48.072;9.884;2022-12-10T16:35:03;12.07;;;9.77;;
20040;SDS011;10181;48.072;9.884;2022-12-10T16:37:29;10.87;;;9.77;;
20040;SDS011;10181;48.072;9.884;2022-12-10T16:39:55;10.53;;;8.77;;
20040;SDS011;10181;48.072;9.884;2022-12-10T16:42:20;10.70;;;9.73;;
20040;SDS011;10181;48.072;9.884;2022-12-10T16:44:46;11.13;;;10.07;;
20040;SDS011;10181;48.072;9.884;2022-12-10T16:47:11;13.87;;;11.73;;
20040;SDS011;10181;48.072;9.884;2022-12-10T16:49:37;12.50;;;10.23;;
20040;SDS011;10181;48.072;9.884;2022-12-10T16:52:03;14.60;;;10.57;;
20040;SDS011;10181;48.072;9.884;2022-12-10T16:54:29;13.80;;;12.53;;
20040;SDS011;10181;48.072;9.884;2022-12-10T16:56:55;15.93;;;14.23;;
20040;SDS011;10181;48.072;9.884;2022-12-10T16:59:20;17.80;;;14.10;;
20040;SDS011;10181;48.072;9.884;2022-12-10T17:01:46;15.80;;;13.03;;
20040;SDS011;10181;48.072;9.884;2022-12-10T17:04:12;13.97;;;12.27;;
20040;SDS011;10181;48.072;9.884;2022-12-10T17:06:37;14.83;;;13.37;;
20040;SDS011;10181;48.072;9.884;2022-12-10T17:09:03;16.73;;;14.33;;
20040;SDS011;10181;48.072;9.884;2022-12-10T17:11:38;15.37;;;13.73;;
20040;SDS011;10181;48.072;9.884;2022-12-10T17:16:43;14.23;;;12.70;;
20040;SDS011;10181;48.072;9.884;2022-12-10T17:19:12;13.70;;;12.40;;